createdAt,value
2019-05-20T00:01:31.237Z,16.93
2019-05-20T00:03:59.879Z,16.65
2019-05-20T00:06:28.552Z,16.63
2019-05-20T00:08:57.209Z,16.78
2019-05-20T00:11:25.866Z,16.92
2019-05-20T00:13:54.499Z,16.87
2019-05-20T00:16:23.088Z,16.82
2019-05-20T00:18:51.725Z,16.85
2019-05-20T00:21:20.312Z,16.81
2019-05-20T00:23:48.960Z,16.82
2019-05-20T00:26:17.536Z,16.76
2019-05-20T00:28:46.161Z,16.68
2019-05-20T00:31:14.773Z,16.73
2019-05-20T00:33:43.438Z,16.59
2019-05-20T00:36:12.216Z,16.72
2019-05-20T00:38:41.198Z,16.62
2019-05-20T00:41:09.800Z,16.64
2019-05-20T00:43:38.465Z,16.31
2019-05-20T00:46:07.060Z,16.48
2019-05-20T00:48:35.704Z,16.51
2019-05-20T00:51:04.339Z,16.47
2019-05-20T00:53:32.952Z,16.60
2019-05-20T00:56:01.559Z,16.60
2019-05-20T00:58:30.345Z,16.71
2019-05-20T01:00:58.982Z,16.40
2019-05-20T01:03:27.673Z,16.64
2019-05-20T01:05:56.265Z,16.58
2019-05-20T01:08:24.927Z,16.57
2019-05-20T01:10:53.507Z,16.52
2019-05-20T01:13:22.191Z,16.66
2019-05-20T01:15:50.790Z,16.58
2019-05-20T01:18:19.558Z,16.54
2019-05-20T01:20:48.162Z,16.44
2019-05-20T01:23:16.838Z,16.40
2019-05-20T01:25:45.437Z,16.64
2019-05-20T01:28:14.061Z,16.23
2019-05-20T01:30:42.530Z,16.49
2019-05-20T01:33:14.268Z,16.35
2019-05-20T01:35:42.622Z,16.47
2019-05-20T01:38:11.255Z,16.55
2019-05-20T01:40:39.832Z,16.31
2019-05-20T01:43:08.460Z,16.25
2019-05-20T01:45:37.894Z,16.21
2019-05-20T01:48:06.627Z,16.40
2019-05-20T01:50:35.213Z,16.44
2019-05-20T01:53:03.876Z,16.34
2019-05-20T01:55:32.515Z,16.25
2019-05-20T01:58:01.186Z,16.46
2019-05-20T02:00:29.762Z,16.42
2019-05-20T02:02:58.456Z,16.38
2019-05-20T02:05:27.077Z,16.20
2019-05-20T02:07:55.797Z,16.30
2019-05-20T02:10:24.458Z,16.18
2019-05-20T02:12:53.106Z,16.07
2019-05-20T02:15:32.102Z,16.00
2019-05-20T02:18:00.815Z,16.08
2019-05-20T02:20:29.395Z,16.04
2019-05-20T02:23:02.431Z,16.14
2019-05-20T02:25:31.072Z,16.01
2019-05-20T02:27:59.693Z,15.96
2019-05-20T02:30:28.351Z,16.04
2019-05-20T02:32:56.985Z,15.94
2019-05-20T02:35:25.585Z,15.92
2019-05-20T02:37:54.209Z,15.85
2019-05-20T02:40:22.855Z,15.44
2019-05-20T02:42:51.513Z,15.92
2019-05-20T02:45:20.086Z,15.87
2019-05-20T02:47:48.759Z,16.12
2019-05-20T02:50:17.498Z,16.17
2019-05-20T02:52:46.148Z,16.05
2019-05-20T02:55:14.804Z,15.89
2019-05-20T02:57:43.529Z,16.18
2019-05-20T03:00:12.525Z,16.03
2019-05-20T03:02:41.188Z,15.92
2019-05-20T03:05:10.115Z,16.04
2019-05-20T03:07:38.752Z,16.17
2019-05-20T03:10:07.488Z,16.05
2019-05-20T03:12:36.149Z,16.10
2019-05-20T03:15:06.309Z,16.15
2019-05-20T03:17:34.962Z,15.96
2019-05-20T03:20:05.030Z,16.13
2019-05-20T03:22:33.630Z,16.13
2019-05-20T03:25:02.300Z,16.00
2019-05-20T03:27:30.947Z,16.28
2019-05-20T03:29:59.551Z,16.19
2019-05-20T03:32:28.172Z,15.96
2019-05-20T03:34:59.887Z,16.11
2019-05-20T03:37:27.097Z,15.97
2019-05-20T03:39:55.687Z,16.18
2019-05-20T03:42:24.462Z,16.18
2019-05-20T03:44:53.198Z,16.08
2019-05-20T03:47:21.860Z,16.21
2019-05-20T03:49:50.445Z,16.27
2019-05-20T03:52:19.164Z,16.27
2019-05-20T03:54:47.743Z,16.18
2019-05-20T03:57:16.448Z,16.23
2019-05-20T03:59:45.801Z,16.39
2019-05-20T04:02:14.561Z,16.05
2019-05-20T04:05:00.705Z,16.18
2019-05-20T04:07:13.513Z,16.26
2019-05-20T04:09:42.119Z,16.24
2019-05-20T04:12:10.741Z,16.10
2019-05-20T04:14:39.341Z,15.86
2019-05-20T04:17:07.959Z,16.23
2019-05-20T04:19:36.560Z,16.36
2019-05-20T04:22:05.205Z,16.17
2019-05-20T04:24:33.868Z,16.32
2019-05-20T04:27:02.501Z,16.22
2019-05-20T04:29:31.161Z,16.08
2019-05-20T04:31:59.839Z,16.44
2019-05-20T04:34:28.453Z,16.40
2019-05-20T04:36:57.209Z,16.50
2019-05-20T04:39:25.792Z,16.62
2019-05-20T04:41:54.534Z,16.41
2019-05-20T04:44:23.144Z,16.50
2019-05-20T04:46:51.768Z,16.45
2019-05-20T04:49:20.383Z,16.46
2019-05-20T04:51:49.016Z,16.54
2019-05-20T04:54:17.652Z,16.43
2019-05-20T04:56:46.255Z,16.70
2019-05-20T04:59:14.895Z,16.54
2019-05-20T05:01:43.478Z,16.64
2019-05-20T05:04:12.120Z,16.48
2019-05-20T05:06:42.248Z,16.47
2019-05-20T05:09:10.937Z,16.68
2019-05-20T05:11:39.506Z,16.68
2019-05-20T05:14:08.211Z,16.54
2019-05-20T05:16:36.773Z,16.71
2019-05-20T05:19:05.461Z,16.71
2019-05-20T05:21:34.277Z,16.86
2019-05-20T05:24:02.950Z,16.64
2019-05-20T05:26:31.579Z,16.73
2019-05-20T05:29:02.028Z,16.91
2019-05-20T05:31:30.661Z,17.02
2019-05-20T05:33:59.235Z,16.98
2019-05-20T05:36:27.934Z,17.27
2019-05-20T05:38:56.667Z,17.08
2019-05-20T05:41:25.345Z,17.15
2019-05-20T05:43:53.954Z,17.01
2019-05-20T05:46:22.642Z,17.13
2019-05-20T05:48:51.280Z,17.02
2019-05-20T05:51:20.014Z,17.06
2019-05-20T05:53:48.609Z,16.93
2019-05-20T05:56:17.592Z,17.14
2019-05-20T05:58:46.237Z,17.31
2019-05-20T06:01:14.973Z,17.48
2019-05-20T06:03:43.542Z,17.55
2019-05-20T06:06:13.498Z,17.48
2019-05-20T06:08:42.337Z,17.55
2019-05-20T06:11:11.036Z,17.89
2019-05-20T06:13:39.616Z,18.21
2019-05-20T06:16:08.301Z,18.60
2019-05-20T06:18:36.871Z,18.70
2019-05-20T06:21:05.835Z,18.74
2019-05-20T06:23:34.439Z,18.88
2019-05-20T06:26:03.180Z,18.95
2019-05-20T06:28:31.750Z,19.40
2019-05-20T06:31:00.443Z,19.37
2019-05-20T06:33:29.114Z,20.18
2019-05-20T06:35:57.704Z,20.28
2019-05-20T06:38:36.708Z,20.46
2019-05-20T06:41:07.116Z,19.88
2019-05-20T06:43:35.683Z,20.23
2019-05-20T06:46:05.082Z,20.15
2019-05-20T06:48:34.819Z,20.20
2019-05-20T06:51:03.504Z,19.97
2019-05-20T06:53:32.089Z,20.04
2019-05-20T06:56:00.834Z,19.15
2019-05-20T06:58:29.447Z,19.76
2019-05-20T07:00:58.139Z,19.84
2019-05-20T07:03:26.729Z,19.93
2019-05-20T07:05:55.469Z,19.79
2019-05-20T07:08:24.064Z,20.07
2019-05-20T07:10:52.685Z,20.27
2019-05-20T07:13:21.262Z,20.02
2019-05-20T07:15:49.952Z,20.12
2019-05-20T07:18:18.591Z,20.15
2019-05-20T07:20:47.344Z,20.21
2019-05-20T07:23:15.943Z,20.06
2019-05-20T07:25:44.591Z,20.19
2019-05-20T07:28:13.243Z,19.98
2019-05-20T07:30:41.941Z,19.83
2019-05-20T07:33:10.590Z,20.14
2019-05-20T07:35:39.284Z,20.35
2019-05-20T07:38:07.902Z,20.39
2019-05-20T07:40:36.618Z,20.22
2019-05-20T07:43:06.595Z,20.54
2019-05-20T07:45:35.687Z,20.88
2019-05-20T07:48:05.250Z,20.68
2019-05-20T07:50:35.436Z,20.27
2019-05-20T07:53:05.378Z,20.60
2019-05-20T07:55:37.213Z,20.58
2019-05-20T07:58:07.448Z,20.81
2019-05-20T08:00:36.764Z,20.67
2019-05-20T08:03:05.703Z,20.98
2019-05-20T08:05:34.299Z,20.76
2019-05-20T08:08:03.178Z,20.91
2019-05-20T08:10:31.769Z,21.08
2019-05-20T08:13:00.513Z,20.66
2019-05-20T08:15:29.243Z,21.09
2019-05-20T08:17:57.871Z,20.90
2019-05-20T08:20:26.451Z,21.10
2019-05-20T08:22:55.063Z,21.01
2019-05-20T08:25:23.700Z,21.04
2019-05-20T08:27:52.378Z,21.44
2019-05-20T08:30:36.119Z,21.48
2019-05-20T08:33:05.346Z,21.43
2019-05-20T08:35:33.990Z,21.48
2019-05-20T08:38:02.629Z,21.53
2019-05-20T08:40:31.344Z,21.81
2019-05-20T08:42:59.992Z,21.65
2019-05-20T08:45:28.661Z,21.91
2019-05-20T08:47:57.293Z,21.73
2019-05-20T08:50:25.936Z,21.75
2019-05-20T08:52:54.614Z,21.77
2019-05-20T08:55:23.266Z,21.92
2019-05-20T08:57:52.014Z,21.93
2019-05-20T09:00:24.232Z,22.40
2019-05-20T09:02:53.434Z,22.04
2019-05-20T09:05:22.060Z,21.93
2019-05-20T09:08:02.228Z,22.16
2019-05-20T09:10:21.054Z,22.09
2019-05-20T09:12:49.695Z,22.30
2019-05-20T09:15:18.861Z,22.54
2019-05-20T09:17:47.504Z,22.58
2019-05-20T09:20:16.474Z,22.84
2019-05-20T09:22:45.151Z,22.38
2019-05-20T09:25:14.398Z,22.57
2019-05-20T09:27:43.263Z,22.78
2019-05-20T09:30:13.264Z,22.80
2019-05-20T09:32:43.175Z,22.77
2019-05-20T09:35:12.582Z,22.80
2019-05-20T09:37:41.231Z,23.27
2019-05-20T09:40:10.094Z,23.30
2019-05-20T09:42:41.078Z,23.21
2019-05-20T09:45:09.985Z,23.28
2019-05-20T09:47:38.699Z,22.76
2019-05-20T09:50:07.532Z,22.97
2019-05-20T09:52:36.266Z,22.94
2019-05-20T09:55:07.059Z,23.06
2019-05-20T09:57:35.767Z,23.44
2019-05-20T10:00:10.372Z,23.45
2019-05-20T10:02:39.018Z,23.54
2019-05-20T10:05:07.666Z,23.72
2019-05-20T10:07:36.325Z,23.85
2019-05-20T10:10:08.387Z,23.70
2019-05-20T10:12:45.921Z,23.67
2019-05-20T10:15:08.665Z,23.53
2019-05-20T10:17:37.399Z,23.70
2019-05-20T10:20:29.643Z,23.26
2019-05-20T10:22:58.328Z,23.52
2019-05-20T10:25:26.925Z,23.98
2019-05-20T10:27:57.718Z,24.17
2019-05-20T10:30:26.123Z,24.25
2019-05-20T10:32:54.727Z,24.55
2019-05-20T10:35:23.466Z,23.92
2019-05-20T10:37:52.124Z,23.40
2019-05-20T10:40:20.753Z,24.16
2019-05-20T10:42:49.399Z,24.59
2019-05-20T10:45:18.686Z,24.42
2019-05-20T10:47:47.485Z,24.45
2019-05-20T10:50:16.110Z,23.82
2019-05-20T10:52:44.770Z,23.75
2019-05-20T10:55:13.713Z,23.84
2019-05-20T10:57:42.352Z,24.06
2019-05-20T11:00:12.466Z,23.85
2019-05-20T11:02:41.180Z,23.75
2019-05-20T11:05:11.755Z,23.75
2019-05-20T11:07:40.488Z,23.72
2019-05-20T11:10:09.516Z,23.92
2019-05-20T11:12:38.205Z,23.55
2019-05-20T11:15:07.404Z,23.52
2019-05-20T11:17:36.133Z,23.50
2019-05-20T11:20:07.015Z,23.38
2019-05-20T11:22:35.629Z,23.41
2019-05-20T11:25:06.899Z,23.28
2019-05-20T11:27:35.591Z,23.29
2019-05-20T11:30:08.666Z,23.26
2019-05-20T11:32:37.791Z,23.35
2019-05-20T11:35:07.535Z,23.20
2019-05-20T11:37:36.184Z,23.22
2019-05-20T11:40:09.660Z,23.17
2019-05-20T11:42:38.756Z,23.30
2019-05-20T11:45:08.181Z,23.25
2019-05-20T11:47:36.936Z,23.26
2019-05-20T11:50:08.677Z,23.31
2019-05-20T11:52:37.446Z,23.30
2019-05-20T11:55:06.575Z,23.60
2019-05-20T11:57:35.441Z,23.66
2019-05-20T12:00:07.245Z,23.45
2019-05-20T12:02:35.972Z,23.38
2019-05-20T12:05:09.902Z,23.39
2019-05-20T12:07:38.485Z,23.46
2019-05-20T12:10:08.213Z,23.46
2019-05-20T12:12:36.853Z,23.39
2019-05-20T12:15:08.352Z,23.28
2019-05-20T12:17:37.366Z,23.34
2019-05-20T12:20:09.864Z,23.36
2019-05-20T12:22:38.424Z,23.51
2019-05-20T12:25:07.591Z,23.56
2019-05-20T12:27:36.220Z,23.69
2019-05-20T12:30:06.145Z,23.63
2019-05-20T12:32:34.837Z,23.55
2019-05-20T12:35:06.938Z,23.50
2019-05-20T12:37:35.600Z,23.55
2019-05-20T12:40:07.450Z,23.75
2019-05-20T12:42:36.168Z,23.65
2019-05-20T12:45:06.908Z,23.70
2019-05-20T12:47:35.571Z,23.68
2019-05-20T12:50:08.620Z,23.76
2019-05-20T12:52:37.396Z,23.68
2019-05-20T12:55:09.585Z,23.58
2019-05-20T12:57:37.426Z,23.52
2019-05-20T13:00:11.325Z,23.51
2019-05-20T13:02:43.398Z,23.46
2019-05-20T13:05:12.651Z,23.53
2019-05-20T13:07:41.360Z,23.48
2019-05-20T13:10:26.881Z,23.54
2019-05-20T13:12:40.749Z,23.59
2019-05-20T13:15:10.649Z,23.67
2019-05-20T13:17:44.214Z,23.76
2019-05-20T13:20:10.915Z,23.68
2019-05-20T13:22:39.524Z,23.57
2019-05-20T13:25:08.272Z,23.52
2019-05-20T13:27:36.883Z,23.45
2019-05-20T13:30:08.975Z,23.22
2019-05-20T13:32:37.566Z,23.17
2019-05-20T13:35:07.388Z,23.11
2019-05-20T13:37:36.070Z,23.04
2019-05-20T13:40:05.838Z,22.99
2019-05-20T13:42:34.449Z,22.96
2019-05-20T13:45:03.037Z,22.89
2019-05-20T13:47:31.674Z,22.79
2019-05-20T13:50:00.292Z,22.74
2019-05-20T13:52:28.962Z,22.74
2019-05-20T13:54:57.645Z,22.69
2019-05-20T13:57:26.300Z,22.64
2019-05-20T13:59:54.887Z,22.55
2019-05-20T14:02:23.545Z,22.56
2019-05-20T14:04:52.211Z,22.57
2019-05-20T14:07:20.841Z,22.45
2019-05-20T14:09:49.415Z,22.50
2019-05-20T14:12:18.078Z,22.48
2019-05-20T14:14:49.767Z,22.49
2019-05-20T14:17:18.360Z,22.49
2019-05-20T14:19:46.982Z,22.27
2019-05-20T14:22:15.592Z,22.09
2019-05-20T14:24:44.179Z,21.73
2019-05-20T14:27:12.819Z,21.77
2019-05-20T14:29:41.384Z,21.67
2019-05-20T14:32:10.022Z,21.46
2019-05-20T14:34:38.591Z,21.43
2019-05-20T14:37:07.258Z,21.28
2019-05-20T14:39:35.940Z,21.09
2019-05-20T14:42:04.730Z,20.90
2019-05-20T14:44:33.331Z,20.73
2019-05-20T14:47:02.550Z,20.56
2019-05-20T14:49:31.164Z,20.61
2019-05-20T14:52:00.352Z,20.59
2019-05-20T14:54:28.934Z,20.52
2019-05-20T14:56:57.575Z,20.50
2019-05-20T14:59:26.238Z,20.49
2019-05-20T15:01:54.905Z,20.37
2019-05-20T15:04:23.507Z,20.12
2019-05-20T15:06:52.159Z,19.85
2019-05-20T15:09:20.847Z,19.52
2019-05-20T15:11:56.534Z,19.74
2019-05-20T15:14:30.496Z,19.94
2019-05-20T15:16:59.212Z,20.02
2019-05-20T15:19:27.869Z,19.93
2019-05-20T15:21:56.528Z,20.09
2019-05-20T15:24:25.105Z,20.11
2019-05-20T15:26:53.814Z,19.99
2019-05-20T15:29:28.011Z,19.53
2019-05-20T15:31:52.856Z,19.56
2019-05-20T15:34:21.523Z,19.65
2019-05-20T15:36:50.159Z,19.57
2019-05-20T15:39:18.760Z,18.96
2019-05-20T15:41:48.192Z,18.16
2019-05-20T15:44:16.970Z,17.77
2019-05-20T15:46:45.629Z,17.63
2019-05-20T15:49:14.336Z,17.38
2019-05-20T15:51:42.941Z,17.47
2019-05-20T15:54:11.556Z,17.32
2019-05-20T15:56:40.212Z,17.42
2019-05-20T15:59:09.127Z,17.43
2019-05-20T16:01:37.816Z,17.52
2019-05-20T16:04:06.572Z,16.84
2019-05-20T16:06:35.136Z,17.21
2019-05-20T16:09:04.760Z,17.41
2019-05-20T16:11:33.396Z,17.10
2019-05-20T16:14:02.081Z,17.26
2019-05-20T16:16:30.845Z,17.28
2019-05-20T16:18:59.499Z,17.51
2019-05-20T16:21:30.412Z,17.42
2019-05-20T16:24:03.990Z,17.75
2019-05-20T16:26:41.564Z,17.60
2019-05-20T16:29:20.525Z,17.69
2019-05-20T16:31:55.890Z,17.92
2019-05-20T16:34:28.849Z,17.83
2019-05-20T16:37:06.130Z,17.90
2019-05-20T16:39:42.335Z,17.83
2019-05-20T16:42:13.983Z,18.12
2019-05-20T16:44:42.562Z,17.84
2019-05-20T16:47:12.871Z,18.02
2019-05-20T16:49:41.468Z,18.14
2019-05-20T16:52:10.218Z,18.34
2019-05-20T16:54:38.925Z,18.24
2019-05-20T16:57:07.656Z,18.22
2019-05-20T16:59:36.254Z,18.42
2019-05-20T17:02:04.948Z,18.48
2019-05-20T17:04:33.597Z,18.45
2019-05-20T17:07:02.537Z,18.37
2019-05-20T17:09:31.223Z,18.26
2019-05-20T17:12:00.097Z,18.42
2019-05-20T17:14:30.423Z,18.44
2019-05-20T17:16:59.212Z,18.53
2019-05-20T17:19:30.807Z,18.38
2019-05-20T17:21:59.478Z,18.48
2019-05-20T17:24:28.147Z,18.47
2019-05-20T17:26:56.761Z,18.36
2019-05-20T17:29:25.506Z,18.32
2019-05-20T17:31:54.317Z,18.35
2019-05-20T17:34:23.194Z,18.42
2019-05-20T17:36:52.176Z,18.40
2019-05-20T17:39:21.186Z,18.45
2019-05-20T17:41:50.122Z,18.23
2019-05-20T17:44:19.149Z,18.19
2019-05-20T17:46:48.150Z,18.29
2019-05-20T17:49:27.765Z,18.28
2019-05-20T17:51:56.782Z,18.37
2019-05-20T17:54:25.742Z,18.37
2019-05-20T17:56:54.780Z,18.36
2019-05-20T17:59:23.760Z,18.38
2019-05-20T18:01:53.562Z,18.41
2019-05-20T18:04:22.536Z,18.30
2019-05-20T18:06:51.563Z,18.32
2019-05-20T18:09:21.204Z,18.23
2019-05-20T18:11:50.257Z,18.28
2019-05-20T18:14:19.817Z,18.31
2019-05-20T18:16:49.347Z,18.25
2019-05-20T18:19:18.339Z,18.10
2019-05-20T18:21:47.764Z,18.28
2019-05-20T18:24:16.811Z,18.10
2019-05-20T18:26:45.750Z,18.28
2019-05-20T18:29:14.792Z,18.26
2019-05-20T18:31:43.789Z,18.25
2019-05-20T18:34:14.446Z,18.23
2019-05-20T18:36:43.441Z,18.21
2019-05-20T18:39:12.568Z,18.13
2019-05-20T18:41:41.623Z,18.20
2019-05-20T18:44:13.277Z,18.05
2019-05-20T18:46:41.436Z,18.03
2019-05-20T18:49:10.437Z,17.96
2019-05-20T18:51:39.479Z,18.08
2019-05-20T18:54:08.484Z,18.10
2019-05-20T18:56:37.620Z,18.06
2019-05-20T18:59:06.675Z,18.11
2019-05-20T19:01:50.543Z,18.04
2019-05-20T19:04:07.908Z,18.15
2019-05-20T19:06:36.990Z,17.95
2019-05-20T19:09:07.399Z,18.07
2019-05-20T19:11:36.427Z,18.13
2019-05-20T19:14:08.281Z,18.08
2019-05-20T19:16:36.268Z,17.99
2019-05-20T19:19:05.325Z,17.97
2019-05-20T19:21:34.338Z,18.06
2019-05-20T19:24:03.369Z,17.91
2019-05-20T19:26:32.371Z,17.97
2019-05-20T19:29:01.386Z,17.97
2019-05-20T19:31:30.333Z,17.94
2019-05-20T19:33:59.375Z,17.84
2019-05-20T19:36:28.399Z,17.83
2019-05-20T19:38:57.333Z,17.78
2019-05-20T19:41:26.354Z,17.64
2019-05-20T19:43:55.387Z,17.63
2019-05-20T19:46:24.377Z,17.58
2019-05-20T19:48:53.470Z,17.59
2019-05-20T19:51:22.440Z,17.53
2019-05-20T19:53:51.390Z,17.68
2019-05-20T19:56:20.338Z,17.67
2019-05-20T19:58:49.351Z,17.62
2019-05-20T20:01:18.305Z,17.62
2019-05-20T20:03:47.238Z,17.59
2019-05-20T20:06:16.106Z,17.46
2019-05-20T20:08:45.043Z,17.40
2019-05-20T20:11:13.959Z,17.31
2019-05-20T20:13:42.780Z,17.31
2019-05-20T20:16:11.427Z,17.30
2019-05-20T20:18:40.077Z,17.33
2019-05-20T20:21:08.688Z,17.36
2019-05-20T20:23:37.330Z,17.30
2019-05-20T20:26:05.990Z,17.05
2019-05-20T20:28:34.708Z,17.09
2019-05-20T20:31:03.279Z,17.13
2019-05-20T20:33:31.911Z,17.02
2019-05-20T20:36:00.496Z,16.87
2019-05-20T20:38:29.266Z,16.80
2019-05-20T20:40:57.885Z,16.96
2019-05-20T20:43:26.619Z,16.83
2019-05-20T20:45:55.201Z,17.04
2019-05-20T20:48:23.824Z,16.96
2019-05-20T20:50:52.459Z,16.89
2019-05-20T20:53:21.111Z,16.64
2019-05-20T20:55:49.691Z,16.88
2019-05-20T20:58:18.482Z,16.83
2019-05-20T21:00:49.119Z,16.69
2019-05-20T21:03:17.799Z,16.72
2019-05-20T21:05:46.375Z,16.97
2019-05-20T21:08:16.788Z,16.78
2019-05-20T21:10:45.394Z,16.77
2019-05-20T21:13:14.122Z,16.72
2019-05-20T21:15:42.786Z,16.68
2019-05-20T21:18:11.399Z,16.61
2019-05-20T21:20:39.980Z,16.78
2019-05-20T21:23:08.656Z,16.56
2019-05-20T21:25:37.228Z,16.73
2019-05-20T21:28:05.857Z,16.47
2019-05-20T21:30:35.015Z,16.40
2019-05-20T21:33:09.271Z,16.38
2019-05-20T21:35:35.203Z,16.54
2019-05-20T21:38:03.891Z,16.71
2019-05-20T21:40:32.494Z,16.60
2019-05-20T21:43:01.122Z,15.96
2019-05-20T21:45:29.791Z,16.30
2019-05-20T21:47:58.540Z,16.37
2019-05-20T21:50:27.110Z,16.28
2019-05-20T21:52:55.847Z,16.39
2019-05-20T21:55:24.427Z,16.16
2019-05-20T21:57:53.085Z,16.16
2019-05-20T22:00:27.544Z,16.14
2019-05-20T22:02:56.963Z,16.27
2019-05-20T22:05:25.635Z,16.38
2019-05-20T22:07:54.258Z,16.30
2019-05-20T22:10:22.852Z,16.06
2019-05-20T22:12:51.525Z,16.21
2019-05-20T22:15:20.104Z,16.24
2019-05-20T22:17:48.735Z,16.22
2019-05-20T22:20:17.385Z,16.20
2019-05-20T22:22:53.669Z,15.80
2019-05-20T22:25:22.331Z,15.82
2019-05-20T22:27:50.937Z,15.97
2019-05-20T22:30:19.625Z,15.94
2019-05-20T22:32:48.220Z,15.98
2019-05-20T22:35:16.856Z,16.08
2019-05-20T22:37:45.488Z,16.06
2019-05-20T22:40:14.252Z,16.05
2019-05-20T22:42:42.873Z,16.12
2019-05-20T22:45:11.531Z,15.99
2019-05-20T22:47:40.562Z,15.95
2019-05-20T22:50:09.224Z,15.98
2019-05-20T22:52:37.837Z,15.88
2019-05-20T22:55:06.523Z,15.83
2019-05-20T22:57:35.169Z,15.96
2019-05-20T23:00:04.611Z,15.87
2019-05-20T23:02:33.299Z,15.75
2019-05-20T23:05:01.930Z,15.96
2019-05-20T23:07:30.565Z,15.87
2019-05-20T23:09:59.153Z,15.81
2019-05-20T23:12:27.881Z,15.77
2019-05-20T23:14:56.487Z,15.76
2019-05-20T23:17:25.105Z,15.92
2019-05-20T23:19:53.705Z,15.79
2019-05-20T23:22:22.340Z,15.76
2019-05-20T23:24:50.923Z,15.66
2019-05-20T23:27:19.614Z,15.63
2019-05-20T23:29:48.582Z,15.58
2019-05-20T23:32:17.229Z,15.67
2019-05-20T23:34:45.901Z,15.40
2019-05-20T23:37:14.559Z,15.36
2019-05-20T23:39:43.225Z,15.45
2019-05-20T23:42:11.812Z,15.20
2019-05-20T23:44:40.555Z,15.32
2019-05-20T23:47:09.142Z,15.59
2019-05-20T23:49:37.836Z,15.57
2019-05-20T23:52:06.493Z,15.65
2019-05-20T23:54:35.183Z,15.51
2019-05-20T23:57:03.895Z,15.22
2019-05-20T23:59:33.648Z,14.61
